sensor_id;sensor_type;location;lat;lon;timestamp;P1;durP1;ratioP1;P2;durP2;ratioP2
20140;SDS011;10231;47.702;9.826;2023-05-31T00:01:41;4.80;;;3.97;;
20140;SDS011;10231;47.702;9.826;2023-05-31T00:04:06;8.17;;;4.83;;
20140;SDS011;10231;47.702;9.826;2023-05-31T00:06:33;5.33;;;4.40;;
20140;SDS011;10231;47.702;9.826;2023-05-31T00:08:58;4.47;;;3.50;;
20140;SDS011;10231;47.702;9.826;2023-05-31T00:11:24;5.50;;;4.10;;
20140;SDS011;10231;47.702;9.826;2023-05-31T00:13:51;6.43;;;4.47;;
20140;SDS011;10231;47.702;9.826;2023-05-31T00:16:17;6.03;;;4.23;;
20140;SDS011;10231;47.702;9.826;2023-05-31T00:18:43;4.53;;;4.13;;
20140;SDS011;10231;47.702;9.826;2023-05-31T00:21:09;5.37;;;4.17;;
20140;SDS011;10231;47.702;9.826;2023-05-31T00:23:34;5.83;;;4.37;;
20140;SDS011;10231;47.702;9.826;2023-05-31T00:26:00;4.77;;;4.27;;
20140;SDS011;10231;47.702;9.826;2023-05-31T00:28:26;4.40;;;3.73;;
20140;SDS011;10231;47.702;9.826;2023-05-31T00:30:51;5.90;;;4.80;;
20140;SDS011;10231;47.702;9.826;2023-05-31T00:33:18;7.60;;;4.83;;
20140;SDS011;10231;47.702;9.826;2023-05-31T00:35:44;5.00;;;3.77;;
20140;SDS011;10231;47.702;9.826;2023-05-31T00:38:09;5.90;;;4.40;;
20140;SDS011;10231;47.702;9.826;2023-05-31T00:40:35;5.40;;;4.10;;
20140;SDS011;10231;47.702;9.826;2023-05-31T00:43:00;6.33;;;4.77;;
20140;SDS011;10231;47.702;9.826;2023-05-31T00:45:26;5.80;;;4.40;;
20140;SDS011;10231;47.702;9.826;2023-05-31T00:47:53;4.93;;;4.37;;
20140;SDS011;10231;47.702;9.826;2023-05-31T00:50:19;6.37;;;4.50;;
20140;SDS011;10231;47.702;9.826;2023-05-31T00:52:45;5.83;;;4.23;;
20140;SDS011;10231;47.702;9.826;2023-05-31T00:55:12;4.43;;;3.63;;
20140;SDS011;10231;47.702;9.826;2023-05-31T00:57:38;8.70;;;4.90;;
20140;SDS011;10231;47.702;9.826;2023-05-31T01:00:05;5.10;;;4.20;;
20140;SDS011;10231;47.702;9.826;2023-05-31T01:02:33;5.77;;;4.17;;
20140;SDS011;10231;47.702;9.826;2023-05-31T01:04:59;7.00;;;5.13;;
20140;SDS011;10231;47.702;9.826;2023-05-31T01:07:26;6.23;;;4.30;;
20140;SDS011;10231;47.702;9.826;2023-05-31T01:09:52;4.67;;;3.97;;
20140;SDS011;10231;47.702;9.826;2023-05-31T01:20:38;4.90;;;4.40;;
20140;SDS011;10231;47.702;9.826;2023-05-31T01:28:49;5.00;;;4.50;;
20140;SDS011;10231;47.702;9.826;2023-05-31T01:31:16;5.53;;;4.53;;
20140;SDS011;10231;47.702;9.826;2023-05-31T01:33:44;5.37;;;4.27;;
20140;SDS011;10231;47.702;9.826;2023-05-31T01:36:10;8.63;;;4.80;;
20140;SDS011;10231;47.702;9.826;2023-05-31T01:38:36;5.73;;;4.40;;
20140;SDS011;10231;47.702;9.826;2023-05-31T01:41:02;8.63;;;4.27;;
20140;SDS011;10231;47.702;9.826;2023-05-31T01:43:31;5.20;;;4.60;;
20140;SDS011;10231;47.702;9.826;2023-05-31T01:45:58;4.70;;;4.30;;
20140;SDS011;10231;47.702;9.826;2023-05-31T01:48:25;5.53;;;4.50;;
20140;SDS011;10231;47.702;9.826;2023-05-31T01:50:53;6.80;;;4.87;;
20140;SDS011;10231;47.702;9.826;2023-05-31T01:53:20;5.33;;;4.30;;
20140;SDS011;10231;47.702;9.826;2023-05-31T01:55:46;5.43;;;4.93;;
20140;SDS011;10231;47.702;9.826;2023-05-31T01:58:13;5.03;;;4.53;;
20140;SDS011;10231;47.702;9.826;2023-05-31T02:00:40;5.70;;;4.80;;
20140;SDS011;10231;47.702;9.826;2023-05-31T02:03:06;5.20;;;4.70;;
20140;SDS011;10231;47.702;9.826;2023-05-31T02:05:32;6.77;;;4.77;;
20140;SDS011;10231;47.702;9.826;2023-05-31T02:07:57;6.40;;;4.63;;
20140;SDS011;10231;47.702;9.826;2023-05-31T02:10:23;5.23;;;4.73;;
20140;SDS011;10231;47.702;9.826;2023-05-31T02:12:49;6.57;;;4.80;;
20140;SDS011;10231;47.702;9.826;2023-05-31T02:15:16;5.43;;;4.67;;
20140;SDS011;10231;47.702;9.826;2023-05-31T02:17:44;7.17;;;5.13;;
20140;SDS011;10231;47.702;9.826;2023-05-31T02:20:14;5.30;;;4.77;;
20140;SDS011;10231;47.702;9.826;2023-05-31T02:22:40;5.47;;;4.50;;
20140;SDS011;10231;47.702;9.826;2023-05-31T02:25:10;7.83;;;4.80;;
20140;SDS011;10231;47.702;9.826;2023-05-31T02:27:36;6.87;;;4.90;;
20140;SDS011;10231;47.702;9.826;2023-05-31T02:30:06;7.07;;;4.90;;
20140;SDS011;10231;47.702;9.826;2023-05-31T02:32:32;7.17;;;5.23;;
20140;SDS011;10231;47.702;9.826;2023-05-31T02:35:01;6.27;;;4.93;;
20140;SDS011;10231;47.702;9.826;2023-05-31T02:37:31;5.30;;;4.80;;
20140;SDS011;10231;47.702;9.826;2023-05-31T02:39:57;5.70;;;4.70;;
20140;SDS011;10231;47.702;9.826;2023-05-31T02:42:22;5.43;;;4.90;;
20140;SDS011;10231;47.702;9.826;2023-05-31T02:44:48;6.50;;;5.00;;
20140;SDS011;10231;47.702;9.826;2023-05-31T02:47:14;5.87;;;4.87;;
20140;SDS011;10231;47.702;9.826;2023-05-31T02:49:40;7.40;;;4.77;;
20140;SDS011;10231;47.702;9.826;2023-05-31T02:52:06;5.43;;;4.93;;
20140;SDS011;10231;47.702;9.826;2023-05-31T02:54:31;7.77;;;4.70;;
20140;SDS011;10231;47.702;9.826;2023-05-31T02:56:57;6.83;;;5.00;;
20140;SDS011;10231;47.702;9.826;2023-05-31T02:59:24;7.37;;;4.70;;
20140;SDS011;10231;47.702;9.826;2023-05-31T03:01:49;5.93;;;4.67;;
20140;SDS011;10231;47.702;9.826;2023-05-31T03:04:15;6.13;;;4.47;;
20140;SDS011;10231;47.702;9.826;2023-05-31T03:06:41;6.10;;;4.67;;
20140;SDS011;10231;47.702;9.826;2023-05-31T03:09:07;5.03;;;4.53;;
20140;SDS011;10231;47.702;9.826;2023-05-31T03:11:33;8.40;;;5.23;;
20140;SDS011;10231;47.702;9.826;2023-05-31T03:13:58;7.80;;;4.57;;
20140;SDS011;10231;47.702;9.826;2023-05-31T03:16:24;6.17;;;4.70;;
20140;SDS011;10231;47.702;9.826;2023-05-31T03:18:50;7.70;;;4.50;;
20140;SDS011;10231;47.702;9.826;2023-05-31T03:21:16;6.30;;;4.40;;
20140;SDS011;10231;47.702;9.826;2023-05-31T03:23:42;8.30;;;4.37;;
20140;SDS011;10231;47.702;9.826;2023-05-31T03:26:08;7.33;;;5.00;;
20140;SDS011;10231;47.702;9.826;2023-05-31T03:28:33;4.93;;;4.43;;
20140;SDS011;10231;47.702;9.826;2023-05-31T03:30:59;4.77;;;4.23;;
20140;SDS011;10231;47.702;9.826;2023-05-31T03:33:25;4.77;;;4.37;;
20140;SDS011;10231;47.702;9.826;2023-05-31T03:35:50;7.47;;;4.83;;
20140;SDS011;10231;47.702;9.826;2023-05-31T03:38:16;8.33;;;4.60;;
20140;SDS011;10231;47.702;9.826;2023-05-31T03:40:41;6.57;;;4.47;;
20140;SDS011;10231;47.702;9.826;2023-05-31T03:43:07;7.37;;;5.10;;
20140;SDS011;10231;47.702;9.826;2023-05-31T03:45:32;6.20;;;4.30;;
20140;SDS011;10231;47.702;9.826;2023-05-31T03:47:58;6.60;;;4.83;;
20140;SDS011;10231;47.702;9.826;2023-05-31T03:50:24;6.87;;;5.20;;
20140;SDS011;10231;47.702;9.826;2023-05-31T03:52:49;5.50;;;4.57;;
20140;SDS011;10231;47.702;9.826;2023-05-31T03:55:15;7.50;;;4.97;;
20140;SDS011;10231;47.702;9.826;2023-05-31T03:57:40;6.33;;;4.27;;
20140;SDS011;10231;47.702;9.826;2023-05-31T04:00:06;7.03;;;4.60;;
20140;SDS011;10231;47.702;9.826;2023-05-31T04:02:36;6.40;;;4.40;;
20140;SDS011;10231;47.702;9.826;2023-05-31T04:05:02;5.70;;;4.60;;
20140;SDS011;10231;47.702;9.826;2023-05-31T04:07:29;6.37;;;4.70;;
20140;SDS011;10231;47.702;9.826;2023-05-31T04:09:55;7.20;;;5.17;;
20140;SDS011;10231;47.702;9.826;2023-05-31T04:12:20;5.87;;;4.33;;
20140;SDS011;10231;47.702;9.826;2023-05-31T04:14:46;4.90;;;4.20;;
20140;SDS011;10231;47.702;9.826;2023-05-31T04:17:11;7.10;;;4.80;;
20140;SDS011;10231;47.702;9.826;2023-05-31T04:19:37;4.77;;;4.27;;
20140;SDS011;10231;47.702;9.826;2023-05-31T04:22:02;5.50;;;5.00;;
20140;SDS011;10231;47.702;9.826;2023-05-31T04:24:28;6.10;;;5.17;;
20140;SDS011;10231;47.702;9.826;2023-05-31T04:26:54;4.47;;;4.07;;
20140;SDS011;10231;47.702;9.826;2023-05-31T04:29:20;7.30;;;4.90;;
20140;SDS011;10231;47.702;9.826;2023-05-31T04:31:46;6.10;;;4.60;;
20140;SDS011;10231;47.702;9.826;2023-05-31T04:34:12;5.03;;;4.20;;
20140;SDS011;10231;47.702;9.826;2023-05-31T04:36:44;6.03;;;4.53;;
20140;SDS011;10231;47.702;9.826;2023-05-31T04:39:14;5.10;;;4.60;;
20140;SDS011;10231;47.702;9.826;2023-05-31T04:41:41;6.67;;;4.40;;
20140;SDS011;10231;47.702;9.826;2023-05-31T04:44:07;5.10;;;4.43;;
20140;SDS011;10231;47.702;9.826;2023-05-31T04:46:32;6.07;;;4.43;;
20140;SDS011;10231;47.702;9.826;2023-05-31T04:48:58;6.27;;;4.70;;
20140;SDS011;10231;47.702;9.826;2023-05-31T04:51:25;4.40;;;4.00;;
20140;SDS011;10231;47.702;9.826;2023-05-31T04:53:51;6.10;;;4.30;;
20140;SDS011;10231;47.702;9.826;2023-05-31T04:56:17;6.43;;;4.53;;
20140;SDS011;10231;47.702;9.826;2023-05-31T04:58:43;5.23;;;4.07;;
20140;SDS011;10231;47.702;9.826;2023-05-31T05:01:10;5.00;;;4.50;;
20140;SDS011;10231;47.702;9.826;2023-05-31T05:03:39;4.43;;;3.97;;
20140;SDS011;10231;47.702;9.826;2023-05-31T05:06:12;6.80;;;4.57;;
20140;SDS011;10231;47.702;9.826;2023-05-31T05:08:44;6.83;;;4.20;;
20140;SDS011;10231;47.702;9.826;2023-05-31T05:11:10;5.40;;;4.07;;
20140;SDS011;10231;47.702;9.826;2023-05-31T05:13:36;4.90;;;4.23;;
20140;SDS011;10231;47.702;9.826;2023-05-31T05:16:02;4.33;;;3.93;;
20140;SDS011;10231;47.702;9.826;2023-05-31T05:18:28;10.53;;;5.30;;
20140;SDS011;10231;47.702;9.826;2023-05-31T05:20:54;5.20;;;4.30;;
20140;SDS011;10231;47.702;9.826;2023-05-31T05:23:21;5.20;;;4.30;;
20140;SDS011;10231;47.702;9.826;2023-05-31T05:25:47;5.37;;;4.37;;
20140;SDS011;10231;47.702;9.826;2023-05-31T05:28:13;6.60;;;4.23;;
20140;SDS011;10231;47.702;9.826;2023-05-31T05:30:38;5.60;;;3.83;;
20140;SDS011;10231;47.702;9.826;2023-05-31T05:33:04;5.30;;;3.73;;
20140;SDS011;10231;47.702;9.826;2023-05-31T05:35:30;6.57;;;4.47;;
20140;SDS011;10231;47.702;9.826;2023-05-31T05:37:56;5.33;;;4.27;;
20140;SDS011;10231;47.702;9.826;2023-05-31T05:40:22;6.10;;;4.20;;
20140;SDS011;10231;47.702;9.826;2023-05-31T05:42:48;5.07;;;4.10;;
20140;SDS011;10231;47.702;9.826;2023-05-31T05:45:14;5.97;;;4.00;;
20140;SDS011;10231;47.702;9.826;2023-05-31T05:47:40;5.63;;;4.30;;
20140;SDS011;10231;47.702;9.826;2023-05-31T05:50:09;5.57;;;4.70;;
20140;SDS011;10231;47.702;9.826;2023-05-31T05:52:36;5.00;;;4.50;;
20140;SDS011;10231;47.702;9.826;2023-05-31T05:55:01;6.30;;;4.83;;
20140;SDS011;10231;47.702;9.826;2023-05-31T05:57:27;5.03;;;4.00;;
20140;SDS011;10231;47.702;9.826;2023-05-31T05:59:53;5.30;;;4.07;;
20140;SDS011;10231;47.702;9.826;2023-05-31T06:02:19;5.93;;;3.77;;
20140;SDS011;10231;47.702;9.826;2023-05-31T06:04:45;5.37;;;4.43;;
20140;SDS011;10231;47.702;9.826;2023-05-31T06:07:11;5.40;;;4.50;;
20140;SDS011;10231;47.702;9.826;2023-05-31T06:09:36;5.03;;;3.93;;
20140;SDS011;10231;47.702;9.826;2023-05-31T06:12:02;4.30;;;3.87;;
20140;SDS011;10231;47.702;9.826;2023-05-31T06:14:27;4.60;;;4.20;;
20140;SDS011;10231;47.702;9.826;2023-05-31T06:16:53;4.30;;;3.90;;
20140;SDS011;10231;47.702;9.826;2023-05-31T06:19:18;4.77;;;4.17;;
20140;SDS011;10231;47.702;9.826;2023-05-31T06:21:44;4.37;;;3.97;;
20140;SDS011;10231;47.702;9.826;2023-05-31T06:24:10;5.03;;;4.10;;
20140;SDS011;10231;47.702;9.826;2023-05-31T06:26:35;6.00;;;4.43;;
20140;SDS011;10231;47.702;9.826;2023-05-31T06:29:02;5.70;;;4.30;;
20140;SDS011;10231;47.702;9.826;2023-05-31T06:31:28;6.50;;;4.37;;
20140;SDS011;10231;47.702;9.826;2023-05-31T06:33:56;5.40;;;4.07;;
20140;SDS011;10231;47.702;9.826;2023-05-31T06:36:21;6.97;;;4.13;;
20140;SDS011;10231;47.702;9.826;2023-05-31T06:38:47;5.43;;;4.13;;
20140;SDS011;10231;47.702;9.826;2023-05-31T06:41:13;4.50;;;4.10;;
20140;SDS011;10231;47.702;9.826;2023-05-31T06:43:38;7.83;;;4.53;;
20140;SDS011;10231;47.702;9.826;2023-05-31T06:46:04;6.43;;;4.63;;
20140;SDS011;10231;47.702;9.826;2023-05-31T06:48:32;7.10;;;4.40;;
20140;SDS011;10231;47.702;9.826;2023-05-31T06:50:58;6.87;;;4.17;;
20140;SDS011;10231;47.702;9.826;2023-05-31T06:53:24;5.37;;;4.17;;
20140;SDS011;10231;47.702;9.826;2023-05-31T06:55:50;5.73;;;4.17;;
20140;SDS011;10231;47.702;9.826;2023-05-31T06:58:16;4.10;;;3.70;;
20140;SDS011;10231;47.702;9.826;2023-05-31T07:00:42;6.50;;;4.17;;
20140;SDS011;10231;47.702;9.826;2023-05-31T07:03:07;4.77;;;4.27;;
20140;SDS011;10231;47.702;9.826;2023-05-31T07:05:33;7.33;;;4.47;;
20140;SDS011;10231;47.702;9.826;2023-05-31T07:07:59;4.70;;;4.07;;
20140;SDS011;10231;47.702;9.826;2023-05-31T07:10:25;4.70;;;4.07;;
20140;SDS011;10231;47.702;9.826;2023-05-31T07:12:52;4.60;;;4.10;;
20140;SDS011;10231;47.702;9.826;2023-05-31T07:15:18;8.67;;;4.70;;
20140;SDS011;10231;47.702;9.826;2023-05-31T07:17:44;5.07;;;4.10;;
20140;SDS011;10231;47.702;9.826;2023-05-31T07:20:10;6.10;;;4.23;;
20140;SDS011;10231;47.702;9.826;2023-05-31T07:22:36;3.63;;;3.33;;
20140;SDS011;10231;47.702;9.826;2023-05-31T07:25:02;4.80;;;4.40;;
20140;SDS011;10231;47.702;9.826;2023-05-31T07:27:29;4.73;;;4.20;;
20140;SDS011;10231;47.702;9.826;2023-05-31T07:29:55;7.93;;;4.47;;
20140;SDS011;10231;47.702;9.826;2023-05-31T07:32:21;6.17;;;3.93;;
20140;SDS011;10231;47.702;9.826;2023-05-31T07:34:46;9.83;;;4.60;;
20140;SDS011;10231;47.702;9.826;2023-05-31T07:37:12;7.67;;;4.60;;
20140;SDS011;10231;47.702;9.826;2023-05-31T07:39:38;6.30;;;4.27;;
20140;SDS011;10231;47.702;9.826;2023-05-31T07:42:03;4.47;;;4.07;;
20140;SDS011;10231;47.702;9.826;2023-05-31T07:44:29;6.03;;;4.13;;
20140;SDS011;10231;47.702;9.826;2023-05-31T07:46:55;7.07;;;4.50;;
20140;SDS011;10231;47.702;9.826;2023-05-31T07:49:21;5.00;;;4.33;;
20140;SDS011;10231;47.702;9.826;2023-05-31T07:51:46;5.87;;;3.93;;
20140;SDS011;10231;47.702;9.826;2023-05-31T07:54:12;6.70;;;4.00;;
20140;SDS011;10231;47.702;9.826;2023-05-31T07:56:38;6.37;;;4.97;;
20140;SDS011;10231;47.702;9.826;2023-05-31T07:59:03;5.20;;;4.53;;
20140;SDS011;10231;47.702;9.826;2023-05-31T08:01:29;7.87;;;4.40;;
20140;SDS011;10231;47.702;9.826;2023-05-31T08:03:54;5.03;;;3.70;;
20140;SDS011;10231;47.702;9.826;2023-05-31T08:06:29;6.80;;;3.63;;
20140;SDS011;10231;47.702;9.826;2023-05-31T08:08:55;4.30;;;3.80;;
20140;SDS011;10231;47.702;9.826;2023-05-31T08:11:20;4.97;;;4.10;;
20140;SDS011;10231;47.702;9.826;2023-05-31T08:13:46;5.30;;;4.10;;
20140;SDS011;10231;47.702;9.826;2023-05-31T08:16:12;4.10;;;3.70;;
20140;SDS011;10231;47.702;9.826;2023-05-31T08:18:37;5.10;;;3.97;;
20140;SDS011;10231;47.702;9.826;2023-05-31T08:21:03;4.53;;;4.03;;
20140;SDS011;10231;47.702;9.826;2023-05-31T08:23:29;4.60;;;3.80;;
20140;SDS011;10231;47.702;9.826;2023-05-31T08:25:55;5.33;;;4.17;;
20140;SDS011;10231;47.702;9.826;2023-05-31T08:28:21;4.03;;;3.63;;
20140;SDS011;10231;47.702;9.826;2023-05-31T08:30:46;5.50;;;3.97;;
20140;SDS011;10231;47.702;9.826;2023-05-31T08:33:13;7.20;;;3.80;;
20140;SDS011;10231;47.702;9.826;2023-05-31T08:35:39;6.50;;;3.80;;
20140;SDS011;10231;47.702;9.826;2023-05-31T08:38:05;4.63;;;3.87;;
20140;SDS011;10231;47.702;9.826;2023-05-31T08:40:31;5.50;;;3.37;;
20140;SDS011;10231;47.702;9.826;2023-05-31T08:45:27;3.90;;;3.23;;
20140;SDS011;10231;47.702;9.826;2023-05-31T08:50:31;5.53;;;3.40;;
20140;SDS011;10231;47.702;9.826;2023-05-31T08:52:57;4.97;;;3.27;;
20140;SDS011;10231;47.702;9.826;2023-05-31T08:55:24;4.40;;;3.70;;
20140;SDS011;10231;47.702;9.826;2023-05-31T08:57:51;5.33;;;3.50;;
20140;SDS011;10231;47.702;9.826;2023-05-31T09:00:18;5.37;;;4.10;;
20140;SDS011;10231;47.702;9.826;2023-05-31T09:02:46;3.70;;;3.40;;
20140;SDS011;10231;47.702;9.826;2023-05-31T09:05:12;3.67;;;3.37;;
20140;SDS011;10231;47.702;9.826;2023-05-31T09:07:39;6.03;;;4.00;;
20140;SDS011;10231;47.702;9.826;2023-05-31T09:10:05;4.97;;;3.63;;
20140;SDS011;10231;47.702;9.826;2023-05-31T09:12:33;5.93;;;4.23;;
20140;SDS011;10231;47.702;9.826;2023-05-31T09:14:59;4.97;;;3.20;;
20140;SDS011;10231;47.702;9.826;2023-05-31T09:17:25;5.73;;;3.67;;
20140;SDS011;10231;47.702;9.826;2023-05-31T09:19:52;7.30;;;3.90;;
20140;SDS011;10231;47.702;9.826;2023-05-31T09:22:18;4.87;;;3.90;;
20140;SDS011;10231;47.702;9.826;2023-05-31T09:24:50;4.57;;;3.50;;
20140;SDS011;10231;47.702;9.826;2023-05-31T09:27:19;7.00;;;3.50;;
20140;SDS011;10231;47.702;9.826;2023-05-31T09:29:50;4.40;;;3.50;;
20140;SDS011;10231;47.702;9.826;2023-05-31T09:32:16;3.70;;;3.30;;
20140;SDS011;10231;47.702;9.826;2023-05-31T09:34:42;4.80;;;3.70;;
20140;SDS011;10231;47.702;9.826;2023-05-31T09:37:08;5.07;;;3.57;;
20140;SDS011;10231;47.702;9.826;2023-05-31T09:39:34;6.03;;;3.87;;
20140;SDS011;10231;47.702;9.826;2023-05-31T09:41:59;6.80;;;3.60;;
20140;SDS011;10231;47.702;9.826;2023-05-31T09:44:28;6.47;;;3.63;;
20140;SDS011;10231;47.702;9.826;2023-05-31T09:46:54;4.83;;;3.57;;
20140;SDS011;10231;47.702;9.826;2023-05-31T09:49:19;6.03;;;3.97;;
20140;SDS011;10231;47.702;9.826;2023-05-31T09:51:51;4.20;;;3.50;;
20140;SDS011;10231;47.702;9.826;2023-05-31T09:54:17;5.37;;;3.50;;
20140;SDS011;10231;47.702;9.826;2023-05-31T09:56:47;4.90;;;3.27;;
20140;SDS011;10231;47.702;9.826;2023-05-31T09:59:14;3.70;;;3.40;;
20140;SDS011;10231;47.702;9.826;2023-05-31T10:01:40;5.23;;;3.37;;
20140;SDS011;10231;47.702;9.826;2023-05-31T10:04:07;5.40;;;3.43;;
20140;SDS011;10231;47.702;9.826;2023-05-31T10:06:32;5.23;;;3.37;;
20140;SDS011;10231;47.702;9.826;2023-05-31T10:09:02;4.83;;;3.67;;
20140;SDS011;10231;47.702;9.826;2023-05-31T10:11:32;4.13;;;3.60;;
20140;SDS011;10231;47.702;9.826;2023-05-31T10:14:07;4.43;;;3.67;;
20140;SDS011;10231;47.702;9.826;2023-05-31T10:16:40;6.03;;;3.40;;
20140;SDS011;10231;47.702;9.826;2023-05-31T10:19:11;4.03;;;3.63;;
20140;SDS011;10231;47.702;9.826;2023-05-31T10:21:42;5.50;;;3.60;;
20140;SDS011;10231;47.702;9.826;2023-05-31T10:24:09;5.03;;;3.43;;
20140;SDS011;10231;47.702;9.826;2023-05-31T10:26:44;3.90;;;3.50;;
20140;SDS011;10231;47.702;9.826;2023-05-31T10:29:21;4.53;;;3.57;;
20140;SDS011;10231;47.702;9.826;2023-05-31T10:31:50;5.27;;;3.63;;
20140;SDS011;10231;47.702;9.826;2023-05-31T10:34:21;5.33;;;3.30;;
20140;SDS011;10231;47.702;9.826;2023-05-31T10:36:51;8.00;;;3.53;;
20140;SDS011;10231;47.702;9.826;2023-05-31T10:39:24;5.67;;;3.10;;
20140;SDS011;10231;47.702;9.826;2023-05-31T10:41:59;4.83;;;3.43;;
20140;SDS011;10231;47.702;9.826;2023-05-31T10:44:36;6.07;;;3.67;;
20140;SDS011;10231;47.702;9.826;2023-05-31T10:47:12;7.70;;;3.70;;
20140;SDS011;10231;47.702;9.826;2023-05-31T10:49:40;3.90;;;3.13;;
20140;SDS011;10231;47.702;9.826;2023-05-31T10:52:08;5.27;;;3.60;;
20140;SDS011;10231;47.702;9.826;2023-05-31T10:54:35;4.80;;;3.10;;
20140;SDS011;10231;47.702;9.826;2023-05-31T10:57:02;4.53;;;3.50;;
20140;SDS011;10231;47.702;9.826;2023-05-31T10:59:29;4.37;;;2.63;;
20140;SDS011;10231;47.702;9.826;2023-05-31T11:02:05;3.93;;;3.20;;
20140;SDS011;10231;47.702;9.826;2023-05-31T11:04:31;3.80;;;3.00;;
20140;SDS011;10231;47.702;9.826;2023-05-31T11:07:18;3.17;;;2.77;;
20140;SDS011;10231;47.702;9.826;2023-05-31T11:09:56;3.77;;;2.73;;
20140;SDS011;10231;47.702;9.826;2023-05-31T11:12:31;4.37;;;2.80;;
20140;SDS011;10231;47.702;9.826;2023-05-31T11:14:58;7.27;;;3.03;;
20140;SDS011;10231;47.702;9.826;2023-05-31T11:17:25;5.20;;;3.17;;
20140;SDS011;10231;47.702;9.826;2023-05-31T11:19:51;7.67;;;3.23;;
20140;SDS011;10231;47.702;9.826;2023-05-31T11:22:18;3.20;;;2.73;;
20140;SDS011;10231;47.702;9.826;2023-05-31T11:24:50;3.97;;;2.57;;
20140;SDS011;10231;47.702;9.826;2023-05-31T11:27:17;3.77;;;3.13;;
20140;SDS011;10231;47.702;9.826;2023-05-31T11:32:11;3.63;;;3.20;;
20140;SDS011;10231;47.702;9.826;2023-05-31T11:34:53;3.90;;;2.97;;
20140;SDS011;10231;47.702;9.826;2023-05-31T11:37:26;4.43;;;2.97;;
20140;SDS011;10231;47.702;9.826;2023-05-31T11:39:53;4.60;;;3.27;;
20140;SDS011;10231;47.702;9.826;2023-05-31T11:42:22;5.13;;;2.90;;
20140;SDS011;10231;47.702;9.826;2023-05-31T11:44:49;6.53;;;2.57;;
20140;SDS011;10231;47.702;9.826;2023-05-31T11:47:19;4.03;;;3.00;;
20140;SDS011;10231;47.702;9.826;2023-05-31T11:49:46;7.47;;;3.33;;
20140;SDS011;10231;47.702;9.826;2023-05-31T11:52:15;4.63;;;3.03;;
20140;SDS011;10231;47.702;9.826;2023-05-31T11:54:43;4.40;;;2.40;;
20140;SDS011;10231;47.702;9.826;2023-05-31T11:57:10;4.23;;;3.07;;
20140;SDS011;10231;47.702;9.826;2023-05-31T11:59:37;3.90;;;2.80;;
20140;SDS011;10231;47.702;9.826;2023-05-31T12:02:04;6.60;;;3.23;;
20140;SDS011;10231;47.702;9.826;2023-05-31T12:04:35;4.00;;;3.10;;
20140;SDS011;10231;47.702;9.826;2023-05-31T12:07:11;4.33;;;2.43;;
20140;SDS011;10231;47.702;9.826;2023-05-31T12:09:40;2.70;;;2.47;;
20140;SDS011;10231;47.702;9.826;2023-05-31T12:12:05;3.83;;;3.00;;
20140;SDS011;10231;47.702;9.826;2023-05-31T12:14:32;2.77;;;2.53;;
20140;SDS011;10231;47.702;9.826;2023-05-31T12:17:04;4.90;;;2.90;;
20140;SDS011;10231;47.702;9.826;2023-05-31T12:19:33;2.80;;;2.60;;
20140;SDS011;10231;47.702;9.826;2023-05-31T12:22:01;4.53;;;2.90;;
20140;SDS011;10231;47.702;9.826;2023-05-31T12:24:27;4.47;;;3.07;;
20140;SDS011;10231;47.702;9.826;2023-05-31T12:26:53;3.67;;;2.70;;
20140;SDS011;10231;47.702;9.826;2023-05-31T12:29:19;4.23;;;3.17;;
20140;SDS011;10231;47.702;9.826;2023-05-31T12:31:59;5.00;;;3.10;;
20140;SDS011;10231;47.702;9.826;2023-05-31T12:34:25;3.60;;;3.00;;
20140;SDS011;10231;47.702;9.826;2023-05-31T12:36:51;5.10;;;2.93;;
20140;SDS011;10231;47.702;9.826;2023-05-31T12:39:23;3.57;;;2.53;;
20140;SDS011;10231;47.702;9.826;2023-05-31T12:41:52;3.37;;;2.53;;
20140;SDS011;10231;47.702;9.826;2023-05-31T12:44:19;4.17;;;2.60;;
20140;SDS011;10231;47.702;9.826;2023-05-31T12:46:47;2.67;;;2.47;;
20140;SDS011;10231;47.702;9.826;2023-05-31T12:49:24;2.90;;;2.47;;
20140;SDS011;10231;47.702;9.826;2023-05-31T12:52:05;3.93;;;2.97;;
20140;SDS011;10231;47.702;9.826;2023-05-31T12:54:35;4.03;;;2.97;;
20140;SDS011;10231;47.702;9.826;2023-05-31T12:57:03;3.80;;;2.63;;
20140;SDS011;10231;47.702;9.826;2023-05-31T12:59:33;3.57;;;2.70;;
20140;SDS011;10231;47.702;9.826;2023-05-31T13:01:59;4.53;;;3.30;;
20140;SDS011;10231;47.702;9.826;2023-05-31T13:04:26;3.00;;;2.80;;
20140;SDS011;10231;47.702;9.826;2023-05-31T13:06:52;2.80;;;2.60;;
20140;SDS011;10231;47.702;9.826;2023-05-31T13:09:18;4.13;;;2.70;;
20140;SDS011;10231;47.702;9.826;2023-05-31T13:11:44;5.70;;;2.90;;
20140;SDS011;10231;47.702;9.826;2023-05-31T13:14:14;4.47;;;2.87;;
20140;SDS011;10231;47.702;9.826;2023-05-31T13:16:41;5.77;;;3.03;;
20140;SDS011;10231;47.702;9.826;2023-05-31T13:19:07;3.27;;;2.13;;
20140;SDS011;10231;47.702;9.826;2023-05-31T13:21:33;6.17;;;2.70;;
20140;SDS011;10231;47.702;9.826;2023-05-31T13:24:03;2.90;;;2.33;;
20140;SDS011;10231;47.702;9.826;2023-05-31T13:26:31;3.83;;;3.00;;
20140;SDS011;10231;47.702;9.826;2023-05-31T13:28:57;3.77;;;2.60;;
20140;SDS011;10231;47.702;9.826;2023-05-31T13:31:25;3.73;;;2.73;;
20140;SDS011;10231;47.702;9.826;2023-05-31T13:33:51;4.07;;;2.80;;
20140;SDS011;10231;47.702;9.826;2023-05-31T13:36:18;4.37;;;2.40;;
20140;SDS011;10231;47.702;9.826;2023-05-31T13:38:48;2.87;;;2.23;;
20140;SDS011;10231;47.702;9.826;2023-05-31T13:41:15;8.43;;;3.37;;
20140;SDS011;10231;47.702;9.826;2023-05-31T13:43:40;3.33;;;2.83;;
20140;SDS011;10231;47.702;9.826;2023-05-31T13:46:06;4.03;;;2.73;;
20140;SDS011;10231;47.702;9.826;2023-05-31T13:48:34;3.73;;;2.40;;
20140;SDS011;10231;47.702;9.826;2023-05-31T13:51:03;4.00;;;2.37;;
20140;SDS011;10231;47.702;9.826;2023-05-31T13:53:29;5.77;;;2.60;;
20140;SDS011;10231;47.702;9.826;2023-05-31T13:55:55;4.67;;;2.83;;
20140;SDS011;10231;47.702;9.826;2023-05-31T13:58:22;3.47;;;2.33;;
20140;SDS011;10231;47.702;9.826;2023-05-31T14:00:47;5.83;;;2.10;;
20140;SDS011;10231;47.702;9.826;2023-05-31T14:03:13;7.13;;;2.63;;
20140;SDS011;10231;47.702;9.826;2023-05-31T14:05:39;6.40;;;2.83;;
20140;SDS011;10231;47.702;9.826;2023-05-31T14:08:05;3.43;;;2.60;;
20140;SDS011;10231;47.702;9.826;2023-05-31T14:10:31;5.20;;;2.90;;
20140;SDS011;10231;47.702;9.826;2023-05-31T14:12:58;4.63;;;2.53;;
20140;SDS011;10231;47.702;9.826;2023-05-31T14:15:24;6.80;;;3.00;;
20140;SDS011;10231;47.702;9.826;2023-05-31T14:17:49;4.70;;;2.57;;
20140;SDS011;10231;47.702;9.826;2023-05-31T14:20:15;5.60;;;2.37;;
20140;SDS011;10231;47.702;9.826;2023-05-31T14:22:40;3.43;;;2.37;;
20140;SDS011;10231;47.702;9.826;2023-05-31T14:25:06;4.73;;;2.50;;
20140;SDS011;10231;47.702;9.826;2023-05-31T14:27:32;4.63;;;2.33;;
20140;SDS011;10231;47.702;9.826;2023-05-31T14:29:58;4.83;;;2.67;;
20140;SDS011;10231;47.702;9.826;2023-05-31T14:32:23;5.07;;;2.60;;
20140;SDS011;10231;47.702;9.826;2023-05-31T14:34:49;2.57;;;2.37;;
20140;SDS011;10231;47.702;9.826;2023-05-31T14:37:15;2.77;;;2.13;;
20140;SDS011;10231;47.702;9.826;2023-05-31T14:39:41;3.10;;;2.17;;
20140;SDS011;10231;47.702;9.826;2023-05-31T14:42:07;4.17;;;2.47;;
20140;SDS011;10231;47.702;9.826;2023-05-31T14:44:33;4.27;;;2.17;;
20140;SDS011;10231;47.702;9.826;2023-05-31T14:47:00;4.50;;;2.03;;
20140;SDS011;10231;47.702;9.826;2023-05-31T14:49:29;2.70;;;2.07;;
20140;SDS011;10231;47.702;9.826;2023-05-31T14:51:55;2.70;;;2.27;;
20140;SDS011;10231;47.702;9.826;2023-05-31T14:54:22;4.30;;;2.50;;
20140;SDS011;10231;47.702;9.826;2023-05-31T14:56:49;4.73;;;2.50;;
20140;SDS011;10231;47.702;9.826;2023-05-31T14:59:15;3.73;;;2.73;;
20140;SDS011;10231;47.702;9.826;2023-05-31T15:01:40;4.17;;;2.73;;
20140;SDS011;10231;47.702;9.826;2023-05-31T15:04:12;5.07;;;2.43;;
20140;SDS011;10231;47.702;9.826;2023-05-31T15:06:40;4.93;;;2.50;;
20140;SDS011;10231;47.702;9.826;2023-05-31T15:09:07;4.40;;;2.20;;